createdAt,value
2018-09-23T00:00:31.901Z,11.37
2018-09-23T00:01:31.891Z,11.46
2018-09-23T00:02:31.869Z,11.37
2018-09-23T00:03:31.862Z,11.49
2018-09-23T00:04:31.872Z,11.43
2018-09-23T00:05:31.828Z,11.49
2018-09-23T00:06:31.870Z,11.43
2018-09-23T00:07:31.799Z,11.47
2018-09-23T00:08:31.793Z,11.55
2018-09-23T00:09:31.758Z,11.42
2018-09-23T00:10:31.766Z,11.40
2018-09-23T00:11:31.741Z,11.47
2018-09-23T00:12:31.732Z,11.52
2018-09-23T00:13:31.710Z,11.47
2018-09-23T00:14:31.699Z,11.47
2018-09-23T00:15:31.679Z,11.51
2018-09-23T00:16:31.663Z,11.51
2018-09-23T00:17:31.692Z,11.36
2018-09-23T00:18:31.642Z,11.47
2018-09-23T00:19:31.619Z,11.43
2018-09-23T00:20:31.604Z,11.42
2018-09-23T00:21:31.599Z,11.44
2018-09-23T00:22:31.573Z,11.40
2018-09-23T00:23:31.590Z,11.36
2018-09-23T00:24:31.555Z,11.47
2018-09-23T00:25:31.529Z,11.47
2018-09-23T00:26:31.517Z,11.49
2018-09-23T00:27:31.494Z,11.51
2018-09-23T00:28:31.514Z,11.60
2018-09-23T00:29:31.508Z,11.60
2018-09-23T00:30:31.457Z,11.60
2018-09-23T00:31:31.717Z,11.60
2018-09-23T00:32:31.431Z,11.64
2018-09-23T00:33:31.416Z,11.65
2018-09-23T00:34:31.405Z,11.62
2018-09-23T00:35:31.386Z,11.64
2018-09-23T00:36:31.372Z,11.60
2018-09-23T00:37:31.362Z,11.58
2018-09-23T00:38:31.331Z,11.64
2018-09-23T00:39:31.320Z,11.57
2018-09-23T00:40:31.320Z,11.58
2018-09-23T00:41:31.316Z,11.67
2018-09-23T00:42:31.280Z,11.60
2018-09-23T00:43:31.268Z,11.60
2018-09-23T00:44:31.249Z,11.62
2018-09-23T00:45:31.240Z,11.55
2018-09-23T00:46:31.215Z,11.60
2018-09-23T00:47:31.218Z,11.55
2018-09-23T00:48:31.257Z,11.52
2018-09-23T00:49:31.189Z,11.52
2018-09-23T00:50:31.165Z,11.55
2018-09-23T00:51:31.153Z,11.49
2018-09-23T00:52:31.126Z,11.54
2018-09-23T00:53:31.400Z,11.58
2018-09-23T00:54:31.108Z,11.60
2018-09-23T00:55:31.093Z,11.57
2018-09-23T00:56:31.066Z,11.57
2018-09-23T00:57:31.051Z,11.52
2018-09-23T00:58:31.057Z,11.51
2018-09-23T00:59:31.078Z,11.54
2018-09-23T01:00:31.015Z,11.58
2018-09-23T01:01:31.001Z,11.62
2018-09-23T01:02:30.978Z,11.60
2018-09-23T01:03:30.975Z,11.52
2018-09-23T01:04:30.956Z,11.54
2018-09-23T01:05:30.974Z,11.51
2018-09-23T01:06:30.931Z,11.47
2018-09-23T01:07:30.920Z,11.40
2018-09-23T01:08:30.894Z,11.47
2018-09-23T01:09:30.875Z,11.42
2018-09-23T01:10:31.133Z,11.40
2018-09-23T01:11:30.857Z,11.35
2018-09-23T01:12:30.841Z,11.43
2018-09-23T01:13:30.827Z,11.42
2018-09-23T01:14:30.812Z,11.33
2018-09-23T01:15:30.802Z,11.28
2018-09-23T01:16:30.788Z,11.36
2018-09-23T01:17:30.763Z,11.33
2018-09-23T01:18:30.756Z,11.32
2018-09-23T01:19:30.740Z,11.32
2018-09-23T01:20:30.723Z,11.33
2018-09-23T01:21:30.732Z,11.35
2018-09-23T01:22:30.699Z,11.32
2018-09-23T01:23:30.680Z,11.28
2018-09-23T01:24:30.669Z,11.28
2018-09-23T01:25:30.674Z,11.33
2018-09-23T01:26:30.629Z,11.33
2018-09-23T01:27:30.614Z,11.40
2018-09-23T01:28:30.629Z,11.39
2018-09-23T01:29:30.587Z,11.44
2018-09-23T01:30:30.574Z,11.46
2018-09-23T01:31:30.555Z,11.42
2018-09-23T01:32:30.536Z,11.46
2018-09-23T01:33:30.558Z,11.43
2018-09-23T01:34:30.515Z,11.37
2018-09-23T01:35:30.499Z,11.36
2018-09-23T01:36:30.491Z,11.51
2018-09-23T01:37:30.458Z,11.49
2018-09-23T01:38:30.487Z,11.49
2018-09-23T01:39:30.444Z,11.52
2018-09-23T01:40:30.438Z,11.57
2018-09-23T01:41:30.414Z,11.57
2018-09-23T01:42:30.398Z,11.60
2018-09-23T01:43:30.370Z,11.62
2018-09-23T01:44:30.407Z,11.61
2018-09-23T01:45:30.373Z,11.62
2018-09-23T01:46:30.331Z,11.67
2018-09-23T01:47:30.321Z,11.61
2018-09-23T01:48:30.306Z,11.62
2018-09-23T01:49:30.280Z,11.65
2018-09-23T01:50:30.328Z,11.69
2018-09-23T01:51:30.270Z,11.67
2018-09-23T01:52:30.244Z,11.69
2018-09-23T01:53:30.234Z,11.67
2018-09-23T01:54:30.222Z,11.65
2018-09-23T01:55:30.193Z,11.72
2018-09-23T01:56:30.188Z,11.72
2018-09-23T01:57:30.208Z,11.72
2018-09-23T01:58:30.173Z,11.67
2018-09-23T01:59:30.142Z,11.67
2018-09-23T02:00:30.132Z,11.69
2018-09-23T02:01:30.119Z,11.70
2018-09-23T02:02:30.122Z,11.82
2018-09-23T02:03:30.089Z,11.69
2018-09-23T02:04:30.074Z,11.80
2018-09-23T02:05:30.061Z,11.80
2018-09-23T02:06:30.048Z,11.80
2018-09-23T02:07:30.025Z,11.82
2018-09-23T02:08:30.016Z,11.80
2018-09-23T02:09:30.028Z,11.78
2018-09-23T02:10:29.980Z,11.73
2018-09-23T02:11:29.968Z,11.78
2018-09-23T02:12:29.966Z,11.78
2018-09-23T02:13:29.967Z,11.73
2018-09-23T02:14:29.926Z,11.62
2018-09-23T02:15:29.940Z,11.69
2018-09-23T02:16:29.933Z,11.70
2018-09-23T02:17:29.877Z,11.73
2018-09-23T02:18:29.868Z,11.70
2018-09-23T02:19:29.909Z,11.75
2018-09-23T02:20:29.840Z,11.75
2018-09-23T02:21:29.822Z,11.72
2018-09-23T02:22:29.809Z,11.70
2018-09-23T02:23:29.794Z,11.79
2018-09-23T02:24:29.785Z,11.65
2018-09-23T02:25:29.793Z,11.64
2018-09-23T02:26:29.744Z,11.58
2018-09-23T02:27:29.733Z,11.60
2018-09-23T02:28:29.712Z,11.65
2018-09-23T02:29:29.698Z,11.62
2018-09-23T02:30:29.835Z,11.57
2018-09-23T02:31:29.684Z,11.61
2018-09-23T02:32:29.667Z,11.65
2018-09-23T02:33:29.649Z,11.64
2018-09-23T02:34:29.637Z,11.62
2018-09-23T02:35:29.614Z,11.62
2018-09-23T02:36:29.599Z,11.67
2018-09-23T02:37:29.593Z,11.69
2018-09-23T02:38:29.565Z,11.67
2018-09-23T02:39:29.560Z,11.69
2018-09-23T02:40:29.544Z,11.64
2018-09-23T02:41:29.561Z,11.67
2018-09-23T02:42:29.539Z,11.70
2018-09-23T02:43:29.495Z,11.65
2018-09-23T02:44:29.489Z,11.75
2018-09-23T02:45:29.472Z,11.67
2018-09-23T02:46:29.486Z,11.73
2018-09-23T02:47:29.475Z,11.78
2018-09-23T02:48:29.436Z,11.67
2018-09-23T02:49:29.403Z,11.65
2018-09-23T02:50:29.397Z,11.80
2018-09-23T02:51:29.411Z,11.73
2018-09-23T02:52:29.392Z,11.78
2018-09-23T02:53:29.366Z,11.70
2018-09-23T02:54:29.328Z,11.73
2018-09-23T02:55:29.315Z,11.75
2018-09-23T02:56:29.308Z,11.83
2018-09-23T02:57:29.333Z,11.82
2018-09-23T02:58:29.277Z,11.79
2018-09-23T02:59:29.256Z,11.82
2018-09-23T03:00:29.255Z,11.90
2018-09-23T03:01:29.228Z,11.88
2018-09-23T03:02:29.220Z,11.85
2018-09-23T03:03:29.200Z,11.90
2018-09-23T03:04:29.247Z,11.85
2018-09-23T03:05:29.178Z,11.88
2018-09-23T03:06:29.166Z,11.86
2018-09-23T03:07:29.154Z,11.94
2018-09-23T03:08:29.126Z,11.88
2018-09-23T03:09:29.120Z,11.95
2018-09-23T03:10:29.169Z,11.90
2018-09-23T03:11:29.094Z,11.80
2018-09-23T03:12:29.085Z,11.85
2018-09-23T03:13:29.064Z,11.80
2018-09-23T03:14:29.055Z,11.79
2018-09-23T03:15:29.076Z,11.83
2018-09-23T03:16:29.028Z,11.91
2018-09-23T03:17:29.010Z,11.85
2018-09-23T03:18:28.986Z,11.94
2018-09-23T03:19:28.972Z,11.85
2018-09-23T03:20:28.959Z,11.86
2018-09-23T03:21:28.964Z,11.82
2018-09-23T03:22:28.926Z,11.86
2018-09-23T03:23:28.911Z,11.91
2018-09-23T03:24:29.172Z,11.94
2018-09-23T03:25:28.876Z,11.96
2018-09-23T03:26:28.885Z,11.85
2018-09-23T03:27:28.858Z,11.90
2018-09-23T03:28:28.840Z,11.90
2018-09-23T03:29:28.834Z,11.83
2018-09-23T03:30:28.822Z,11.86
2018-09-23T03:31:28.803Z,11.86
2018-09-23T03:32:28.784Z,11.90
2018-09-23T03:33:28.762Z,11.91
2018-09-23T03:34:28.761Z,11.85
2018-09-23T03:35:28.773Z,11.85
2018-09-23T03:36:28.733Z,11.80
2018-09-23T03:37:28.702Z,11.78
2018-09-23T03:38:28.722Z,11.91
2018-09-23T03:39:28.671Z,11.88
2018-09-23T03:40:28.734Z,11.86
2018-09-23T03:41:28.658Z,11.86
2018-09-23T03:42:28.643Z,11.83
2018-09-23T03:43:28.654Z,11.85
2018-09-23T03:44:28.609Z,11.83
2018-09-23T03:45:28.598Z,11.86
2018-09-23T03:46:28.586Z,11.85
2018-09-23T03:47:28.554Z,11.96
2018-09-23T03:48:28.577Z,11.85
2018-09-23T03:49:28.540Z,11.85
2018-09-23T03:50:28.532Z,11.82
2018-09-23T03:51:28.498Z,11.98
2018-09-23T03:52:28.491Z,11.85
2018-09-23T03:53:28.505Z,11.76
2018-09-23T03:54:28.491Z,11.85
2018-09-23T03:55:28.450Z,11.85
2018-09-23T03:56:28.429Z,11.85
2018-09-23T03:57:28.423Z,11.76
2018-09-23T03:58:28.404Z,11.85
2018-09-23T03:59:28.412Z,11.90
2018-09-23T04:00:28.367Z,11.85
2018-09-23T04:01:28.369Z,11.91
2018-09-23T04:02:28.344Z,11.96
2018-09-23T04:03:28.331Z,11.91
2018-09-23T04:04:28.356Z,11.91
2018-09-23T04:05:28.314Z,11.91
2018-09-23T04:06:28.287Z,11.78
2018-09-23T04:07:28.274Z,11.91
2018-09-23T04:08:28.265Z,11.82
2018-09-23T04:09:28.256Z,11.88
2018-09-23T04:10:28.385Z,11.91
2018-09-23T04:11:28.216Z,11.83
2018-09-23T04:12:28.202Z,11.83
2018-09-23T04:13:28.184Z,11.86
2018-09-23T04:14:28.195Z,11.83
2018-09-23T04:15:28.161Z,11.82
2018-09-23T04:16:28.213Z,11.85
2018-09-23T04:17:28.124Z,11.85
2018-09-23T04:18:28.117Z,11.86
2018-09-23T04:19:28.097Z,11.90
2018-09-23T04:20:28.084Z,11.91
2018-09-23T04:21:28.061Z,11.85
2018-09-23T04:22:28.060Z,11.91
2018-09-23T04:23:28.049Z,11.82
2018-09-23T04:24:28.017Z,11.91
2018-09-23T04:25:28.023Z,11.85
2018-09-23T04:26:27.988Z,11.82
2018-09-23T04:27:28.051Z,11.82
2018-09-23T04:28:27.982Z,11.78
2018-09-23T04:29:27.954Z,11.78
2018-09-23T04:30:27.933Z,11.83
2018-09-23T04:31:27.926Z,11.82
2018-09-23T04:32:27.899Z,11.78
2018-09-23T04:33:27.914Z,11.85
2018-09-23T04:34:27.876Z,11.80
2018-09-23T04:35:27.859Z,11.82
2018-09-23T04:36:27.843Z,11.79
2018-09-23T04:37:27.834Z,11.82
2018-09-23T04:38:27.857Z,11.79
2018-09-23T04:39:27.879Z,11.86
2018-09-23T04:40:27.793Z,11.86
2018-09-23T04:41:27.774Z,11.86
2018-09-23T04:42:27.769Z,11.91
2018-09-23T04:43:27.748Z,11.90
2018-09-23T04:44:27.725Z,11.86
2018-09-23T04:45:27.742Z,11.82
2018-09-23T04:46:27.703Z,11.85
2018-09-23T04:47:27.686Z,11.90
2018-09-23T04:48:27.678Z,11.80
2018-09-23T04:49:27.651Z,11.82
2018-09-23T04:50:27.649Z,11.85
2018-09-23T04:51:27.622Z,11.91
2018-09-23T04:52:27.618Z,11.80
2018-09-23T04:53:27.605Z,11.88
2018-09-23T04:54:27.579Z,11.85
2018-09-23T04:55:27.830Z,11.95
2018-09-23T04:56:27.559Z,11.90
2018-09-23T04:57:27.536Z,11.90
2018-09-23T04:58:27.533Z,11.85
2018-09-23T04:59:27.515Z,11.86
2018-09-23T05:00:27.510Z,11.82
2018-09-23T05:01:27.762Z,11.86
2018-09-23T05:02:27.474Z,11.91
2018-09-23T05:03:27.457Z,11.94
2018-09-23T05:04:27.430Z,11.90
2018-09-23T05:05:27.428Z,11.85
2018-09-23T05:06:27.403Z,11.96
2018-09-23T05:07:27.668Z,11.88
2018-09-23T05:08:27.383Z,11.95
2018-09-23T05:09:27.366Z,12.02
2018-09-23T05:10:27.546Z,11.96
2018-09-23T05:11:27.340Z,11.95
2018-09-23T05:12:27.331Z,11.98
2018-09-23T05:13:27.337Z,11.96
2018-09-23T05:14:27.300Z,11.96
2018-09-23T05:15:27.343Z,12.01
2018-09-23T05:16:27.271Z,12.05
2018-09-23T05:17:27.254Z,12.04
2018-09-23T05:18:27.230Z,12.01
2018-09-23T05:19:27.232Z,12.07
2018-09-23T05:20:27.216Z,12.10
2018-09-23T05:21:27.233Z,12.09
2018-09-23T05:22:27.171Z,11.98
2018-09-23T05:23:27.173Z,12.05
2018-09-23T05:24:27.205Z,12.01
2018-09-23T05:25:27.135Z,12.05
2018-09-23T05:26:27.121Z,12.01
2018-09-23T05:27:27.117Z,12.10
2018-09-23T05:28:27.094Z,12.04
2018-09-23T05:29:27.074Z,11.98
2018-09-23T05:30:27.096Z,11.95
2018-09-23T05:31:27.041Z,11.95
2018-09-23T05:32:27.093Z,11.91
2018-09-23T05:33:27.024Z,11.90
2018-09-23T05:34:27.006Z,11.86
2018-09-23T05:35:27.047Z,11.85
2018-09-23T05:36:26.981Z,11.82
2018-09-23T05:37:26.954Z,11.86
2018-09-23T05:38:26.991Z,11.85
2018-09-23T05:39:26.927Z,11.82
2018-09-23T05:40:27.137Z,11.88
2018-09-23T05:41:26.908Z,11.85
2018-09-23T05:42:26.888Z,11.85
2018-09-23T05:43:26.903Z,11.94
2018-09-23T05:44:26.871Z,12.02
2018-09-23T05:45:26.846Z,11.94
2018-09-23T05:46:26.824Z,11.95
2018-09-23T05:47:26.821Z,11.95
2018-09-23T05:48:26.806Z,11.96
2018-09-23T05:49:26.802Z,11.98
2018-09-23T05:50:26.767Z,11.98
2018-09-23T05:51:26.766Z,12.02
2018-09-23T05:52:26.751Z,12.05
2018-09-23T05:53:26.725Z,12.02
2018-09-23T05:54:26.707Z,11.99
2018-09-23T05:55:26.700Z,12.04
2018-09-23T05:56:26.678Z,12.02
2018-09-23T05:57:26.673Z,12.02
2018-09-23T05:58:26.664Z,12.04
2018-09-23T05:59:26.698Z,12.05
2018-09-23T06:00:26.630Z,12.07
2018-09-23T06:01:26.613Z,12.09
2018-09-23T06:02:26.613Z,12.09
2018-09-23T06:03:26.581Z,12.14
2018-09-23T06:04:26.567Z,12.07
2018-09-23T06:05:26.590Z,12.05
2018-09-23T06:06:26.548Z,12.05
2018-09-23T06:07:26.604Z,12.05
2018-09-23T06:08:26.508Z,12.04
2018-09-23T06:09:26.505Z,12.12
2018-09-23T06:10:26.491Z,12.12
2018-09-23T06:11:26.465Z,12.12
2018-09-23T06:12:26.459Z,12.10
2018-09-23T06:13:26.462Z,12.16
2018-09-23T06:14:26.426Z,12.04
2018-09-23T06:15:26.418Z,12.07
2018-09-23T06:16:26.390Z,12.09
2018-09-23T06:17:26.392Z,12.05
2018-09-23T06:18:26.447Z,12.12
2018-09-23T06:19:26.349Z,12.05
2018-09-23T06:20:26.349Z,12.13
2018-09-23T06:21:26.327Z,12.09
2018-09-23T06:22:26.308Z,12.01
2018-09-23T06:23:26.401Z,12.07
2018-09-23T06:24:26.300Z,12.16
2018-09-23T06:25:26.273Z,12.10
2018-09-23T06:26:26.257Z,12.12
2018-09-23T06:27:26.237Z,12.20
2018-09-23T06:28:26.235Z,12.20
2018-09-23T06:29:26.208Z,12.20
2018-09-23T06:30:26.196Z,12.16
2018-09-23T06:31:26.178Z,12.21
2018-09-23T06:32:26.166Z,12.24
2018-09-23T06:33:26.157Z,12.23
2018-09-23T06:34:26.170Z,12.24
2018-09-23T06:35:26.153Z,12.28
2018-09-23T06:36:26.117Z,12.28
2018-09-23T06:37:26.098Z,12.28
2018-09-23T06:38:26.089Z,12.27
2018-09-23T06:39:26.348Z,12.29
2018-09-23T06:40:26.069Z,12.24
2018-09-23T06:41:26.042Z,12.23
2018-09-23T06:42:26.032Z,12.34
2018-09-23T06:43:26.013Z,12.24
2018-09-23T06:44:25.999Z,12.23
2018-09-23T06:45:26.262Z,12.23
2018-09-23T06:46:25.968Z,12.28
2018-09-23T06:47:25.960Z,12.32
2018-09-23T06:48:25.939Z,12.29
2018-09-23T06:49:25.928Z,12.35
2018-09-23T06:50:25.909Z,12.34
2018-09-23T06:51:25.899Z,12.24
2018-09-23T06:52:25.884Z,12.32
2018-09-23T06:53:25.863Z,12.34
2018-09-23T06:54:25.860Z,12.35
2018-09-23T06:55:25.870Z,12.37
2018-09-23T06:56:25.886Z,12.34
2018-09-23T06:57:25.909Z,12.37
2018-09-23T06:58:25.790Z,12.34
2018-09-23T06:59:25.786Z,12.37
2018-09-23T07:00:25.770Z,12.27
2018-09-23T07:01:25.755Z,12.24
2018-09-23T07:02:25.762Z,12.34
2018-09-23T07:03:25.732Z,12.37
2018-09-23T07:04:25.758Z,12.21
2018-09-23T07:05:25.700Z,12.17
2018-09-23T07:06:25.686Z,12.37
2018-09-23T07:07:25.926Z,12.42
2018-09-23T07:08:25.652Z,12.37
2018-09-23T07:09:25.629Z,12.35
2018-09-23T07:10:25.652Z,12.35
2018-09-23T07:11:34.923Z,12.23
2018-09-23T07:12:25.854Z,12.32
2018-09-23T07:16:31.166Z,12.38
2018-09-23T07:17:31.178Z,12.31
2018-09-23T07:18:31.139Z,12.32
2018-09-23T07:19:31.114Z,12.27
2018-09-23T07:21:08.784Z,12.34
2018-09-23T07:21:31.078Z,12.37
2018-09-23T07:22:31.063Z,12.28
2018-09-23T07:23:40.303Z,12.29
2018-09-23T07:24:31.040Z,12.29
2018-09-23T07:25:31.035Z,12.34
2018-09-23T07:26:31.012Z,12.41
2018-09-23T07:27:30.998Z,12.42
2018-09-23T07:47:22.294Z,12.39
2018-09-23T07:48:22.265Z,12.47
2018-09-23T07:49:22.257Z,12.38
2018-09-23T07:50:22.251Z,12.42
2018-09-23T07:51:22.231Z,12.41
2018-09-23T07:52:30.124Z,12.54
2018-09-23T07:53:22.473Z,12.39
2018-09-23T07:54:22.175Z,12.52
2018-09-23T07:59:45.400Z,12.54
2018-09-23T08:00:45.349Z,12.54
2018-09-23T08:01:45.328Z,12.42
2018-09-23T08:03:14.183Z,12.56
2018-09-23T08:03:45.300Z,12.52
2018-09-23T08:04:45.271Z,12.54
2018-09-23T08:05:45.274Z,12.53
2018-09-23T08:06:45.248Z,12.49
2018-09-23T08:07:45.248Z,12.57
2018-09-23T08:08:45.225Z,12.53
2018-09-23T08:09:45.231Z,12.54
2018-09-23T08:10:45.193Z,12.56
2018-09-23T08:14:30.375Z,12.54
2018-09-23T08:16:10.900Z,12.56
2018-09-23T08:16:29.953Z,12.62
2018-09-23T08:17:29.938Z,12.56
2018-09-23T08:18:29.927Z,12.60
2018-09-23T08:19:30.025Z,12.57
2018-09-23T08:20:30.065Z,12.60
2018-09-23T08:21:29.887Z,12.56
2018-09-23T08:22:29.871Z,12.60
2018-09-23T08:23:29.853Z,12.57
2018-09-23T08:24:29.839Z,12.57
2018-09-23T08:25:30.000Z,12.56
2018-09-23T08:26:29.884Z,12.60
2018-09-23T08:27:29.788Z,12.56
2018-09-23T08:28:29.783Z,12.62
2018-09-23T08:29:29.772Z,12.68
2018-09-23T08:30:29.754Z,12.62
2018-09-23T08:31:29.761Z,12.60
2018-09-23T08:32:29.730Z,12.67
2018-09-23T08:33:29.711Z,12.60
2018-09-23T08:34:29.704Z,12.70
2018-09-23T08:35:29.679Z,12.71
2018-09-23T08:36:29.732Z,12.71
2018-09-23T08:37:29.703Z,12.75
2018-09-23T08:38:29.649Z,12.74
2018-09-23T08:39:29.625Z,12.70
2018-09-23T08:40:29.643Z,12.77
2018-09-23T08:41:29.600Z,12.70
2018-09-23T08:42:29.597Z,12.74
2018-09-23T08:43:29.572Z,12.77
2018-09-23T08:44:29.558Z,12.74
2018-09-23T08:45:29.545Z,12.75
2018-09-23T08:46:29.536Z,12.77
2018-09-23T08:47:29.556Z,12.83
2018-09-23T08:48:29.506Z,12.83
2018-09-23T08:49:29.483Z,12.82
2018-09-23T08:50:29.476Z,12.77
2018-09-23T08:51:29.462Z,12.79
2018-09-23T08:52:29.455Z,12.83
2018-09-23T08:53:29.435Z,12.85
2018-09-23T08:57:40.422Z,12.90
2018-09-23T08:58:40.305Z,12.87
2018-09-23T08:59:40.283Z,12.87
2018-09-23T09:00:40.270Z,12.89
2018-09-23T09:01:40.273Z,12.83
2018-09-23T09:02:50.754Z,12.90
2018-09-23T09:03:40.330Z,12.90
2018-09-23T09:04:50.740Z,12.93
2018-09-23T09:05:40.203Z,12.97
2018-09-23T09:06:40.187Z,12.93
2018-09-23T09:07:40.179Z,12.93
2018-09-23T09:08:40.161Z,12.93
2018-09-23T09:09:40.161Z,13.00
2018-09-23T09:10:40.136Z,12.87
2018-09-23T09:11:47.825Z,13.01
2018-09-23T09:13:03.698Z,12.87
2018-09-23T09:13:40.088Z,12.97
2018-09-23T09:14:40.078Z,12.97
2018-09-23T09:15:47.597Z,12.93
2018-09-23T09:16:40.055Z,12.95
2018-09-23T09:19:25.364Z,12.92
2018-09-23T09:20:25.325Z,12.90
2018-09-23T09:21:25.314Z,12.89
2018-09-23T09:22:25.297Z,12.95
2018-09-23T09:23:25.315Z,12.89
2018-09-23T09:24:25.284Z,12.90
2018-09-23T09:25:25.260Z,12.87
2018-09-23T09:26:25.259Z,12.90
2018-09-23T09:27:25.250Z,12.93
2018-09-23T09:28:25.237Z,12.96
2018-09-23T09:29:25.195Z,12.93
2018-09-23T09:30:25.177Z,12.90
2018-09-23T09:31:25.170Z,12.93
2018-09-23T09:32:25.161Z,12.96
2018-09-23T09:33:25.143Z,12.90
2018-09-23T09:34:25.118Z,12.89
2018-09-23T09:35:25.122Z,12.89
2018-09-23T09:36:25.092Z,12.87
2018-09-23T09:37:32.156Z,12.89
2018-09-23T09:38:25.108Z,12.93
2018-09-23T09:39:25.060Z,12.96
2018-09-23T09:40:25.039Z,12.92
2018-09-23T09:41:25.030Z,12.97
2018-09-23T09:42:25.048Z,13.03
2018-09-23T09:43:25.001Z,12.93
2018-09-23T09:44:24.977Z,13.05
2018-09-23T09:45:24.975Z,12.96
2018-09-23T09:46:25.014Z,13.00
2018-09-23T09:47:24.947Z,13.04
2018-09-23T09:48:24.933Z,13.00
2018-09-23T09:49:24.925Z,13.01
2018-09-23T09:50:24.900Z,13.00
2018-09-23T09:51:24.897Z,12.92
2018-09-23T09:52:24.887Z,13.00
2018-09-23T09:53:24.861Z,12.90
2018-09-23T09:54:24.882Z,12.93
2018-09-23T09:55:24.876Z,13.01
2018-09-23T09:56:24.828Z,13.00
2018-09-23T09:57:24.817Z,12.96
2018-09-23T09:58:24.801Z,12.90
2018-09-23T09:59:24.845Z,12.96
2018-09-23T10:00:24.771Z,13.03
2018-09-23T10:01:24.756Z,13.04
2018-09-23T10:03:32.077Z,12.92
2018-09-23T10:03:32.587Z,12.97
2018-09-23T10:06:37.926Z,12.97
2018-09-23T10:07:47.675Z,13.03
2018-09-23T10:08:38.154Z,13.05
2018-09-23T10:09:37.869Z,13.03
2018-09-23T10:10:37.864Z,13.00
2018-09-23T10:11:37.885Z,13.08
2018-09-23T10:12:37.831Z,13.05
2018-09-23T10:13:37.812Z,13.04
2018-09-23T10:14:37.808Z,13.08
2018-09-23T10:15:37.805Z,13.10
2018-09-23T10:16:37.773Z,13.01
2018-09-23T10:17:37.767Z,12.93
2018-09-23T10:18:37.750Z,12.97
2018-09-23T10:19:37.766Z,13.00
2018-09-23T10:20:37.721Z,13.03
2018-09-23T10:21:37.711Z,12.97
2018-09-23T10:22:37.774Z,12.96
2018-09-23T10:23:37.744Z,13.03
2018-09-23T10:24:37.669Z,13.03
2018-09-23T10:25:37.647Z,12.93
2018-09-23T10:26:37.634Z,13.04
2018-09-23T10:27:37.628Z,12.97
2018-09-23T10:28:37.615Z,13.03
2018-09-23T10:29:37.592Z,13.03
2018-09-23T10:30:37.575Z,12.96
2018-09-23T10:31:37.672Z,13.03
2018-09-23T10:32:37.585Z,13.03
2018-09-23T10:33:37.540Z,12.95
2018-09-23T10:34:37.523Z,12.92
2018-09-23T10:35:37.509Z,12.90
2018-09-23T10:36:37.510Z,12.89
2018-09-23T10:37:37.763Z,12.83
2018-09-23T10:38:37.480Z,12.85
2018-09-23T10:39:37.461Z,12.78
2018-09-23T10:40:37.442Z,12.70
2018-09-23T10:41:37.436Z,12.74
2018-09-23T10:42:37.425Z,12.77
2018-09-23T10:43:37.438Z,12.72
2018-09-23T10:44:37.422Z,12.75
2018-09-23T10:45:37.373Z,12.75
2018-09-23T10:46:37.364Z,12.70
2018-09-23T10:47:37.353Z,12.77
2018-09-23T10:48:37.384Z,12.74
2018-09-23T10:49:37.331Z,12.74
2018-09-23T10:50:37.304Z,12.72
2018-09-23T10:51:37.302Z,12.68
2018-09-23T10:52:37.280Z,12.67
2018-09-23T10:53:37.259Z,12.62
2018-09-23T10:54:37.313Z,12.62
2018-09-23T10:55:37.301Z,12.71
2018-09-23T10:56:37.232Z,12.59
2018-09-23T10:57:37.219Z,12.67
2018-09-23T10:58:37.197Z,12.59
2018-09-23T10:59:37.261Z,12.57
2018-09-23T11:00:37.202Z,12.62
2018-09-23T11:01:37.157Z,12.54
2018-09-23T11:02:37.134Z,12.49
2018-09-23T11:03:37.165Z,12.37
2018-09-23T11:04:37.115Z,12.35
2018-09-23T11:05:37.124Z,12.29
2018-09-23T11:06:37.092Z,12.35
2018-09-23T11:07:37.104Z,12.32
2018-09-23T11:08:37.056Z,12.34
2018-09-23T11:09:37.051Z,12.32
2018-09-23T11:10:37.067Z,12.28
2018-09-23T11:11:37.023Z,12.34
2018-09-23T11:12:37.010Z,12.31
2018-09-23T11:13:36.991Z,12.29
2018-09-23T11:14:36.972Z,12.28
2018-09-23T11:15:36.953Z,12.37
2018-09-23T11:16:36.940Z,12.37
2018-09-23T11:17:36.929Z,12.20
2018-09-23T11:18:36.962Z,12.24
2018-09-23T11:19:36.904Z,12.10
2018-09-23T11:20:36.891Z,12.07
2018-09-23T11:21:36.878Z,12.09
2018-09-23T11:22:36.858Z,12.17
2018-09-23T11:23:36.889Z,12.21
2018-09-23T11:24:36.899Z,12.16
2018-09-23T11:25:36.824Z,12.16
2018-09-23T11:26:36.808Z,12.17
2018-09-23T11:27:36.795Z,12.17
2018-09-23T11:28:36.774Z,12.17
2018-09-23T11:29:36.818Z,12.19
2018-09-23T11:30:36.758Z,12.20
2018-09-23T11:31:36.727Z,12.16
2018-09-23T11:32:36.720Z,12.20
2018-09-23T11:33:36.712Z,12.17
2018-09-23T11:34:36.680Z,12.24
2018-09-23T11:35:36.706Z,12.27
2018-09-23T11:36:36.676Z,12.31
2018-09-23T11:37:36.654Z,12.28
2018-09-23T11:38:36.636Z,12.19
2018-09-23T11:39:36.612Z,12.27
2018-09-23T11:40:36.671Z,12.21
2018-09-23T11:41:36.590Z,12.14
2018-09-23T11:42:36.571Z,12.17
2018-09-23T11:43:36.567Z,12.09
2018-09-23T11:44:36.560Z,12.17
2018-09-23T11:45:36.542Z,12.16
2018-09-23T11:46:36.516Z,12.09
2018-09-23T11:47:36.537Z,12.12
2018-09-23T11:48:36.494Z,12.16
2018-09-23T11:49:36.483Z,12.07
2018-09-23T11:50:36.468Z,12.10
2018-09-23T11:51:36.454Z,12.05
2018-09-23T11:52:36.470Z,12.16
2018-09-23T11:53:36.431Z,12.14
2018-09-23T11:54:36.412Z,12.05
2018-09-23T11:55:36.390Z,12.05
2018-09-23T11:56:36.384Z,12.09
2018-09-23T11:57:36.367Z,12.09
2018-09-23T11:58:36.385Z,12.09
2018-09-23T11:59:36.333Z,12.10
2018-09-23T12:00:36.319Z,12.09
2018-09-23T12:01:36.314Z,12.13
2018-09-23T12:02:36.293Z,12.13
2018-09-23T12:03:36.342Z,12.05
2018-09-23T12:04:36.303Z,12.12
2018-09-23T12:05:36.253Z,12.09
2018-09-23T12:06:36.244Z,12.10
2018-09-23T12:07:36.226Z,12.14
2018-09-23T12:08:36.209Z,12.21
2018-09-23T12:09:36.251Z,12.16
2018-09-23T12:10:36.196Z,12.27
2018-09-23T12:11:36.164Z,12.16
2018-09-23T12:12:36.159Z,12.13
2018-09-23T12:13:36.136Z,12.07
2018-09-23T12:14:36.123Z,12.09
2018-09-23T12:15:36.171Z,12.02
2018-09-23T12:16:36.119Z,12.02
2018-09-23T12:17:36.082Z,12.05
2018-09-23T12:18:36.063Z,12.02
2018-09-23T12:19:36.051Z,12.04
2018-09-23T12:20:36.105Z,11.91
2018-09-23T12:21:36.051Z,11.86
2018-09-23T12:22:36.003Z,11.80
2018-09-23T12:23:36.001Z,11.69
2018-09-23T12:24:35.988Z,11.75
2018-09-23T12:25:36.110Z,11.73
2018-09-23T12:26:36.023Z,11.62
2018-09-23T12:27:35.936Z,11.61
2018-09-23T12:28:35.921Z,11.67
2018-09-23T12:29:35.920Z,11.57
2018-09-23T12:30:35.902Z,11.57
2018-09-23T12:31:35.882Z,11.60
2018-09-23T12:32:35.899Z,11.47
2018-09-23T12:33:35.915Z,11.47
2018-09-23T12:34:35.844Z,11.43
2018-09-23T12:35:35.824Z,11.40
2018-09-23T12:36:35.822Z,11.47
2018-09-23T12:37:35.798Z,11.44
2018-09-23T12:38:35.773Z,11.46
2018-09-23T12:39:35.815Z,11.40
2018-09-23T12:40:35.753Z,11.51
2018-09-23T12:41:35.741Z,11.49
2018-09-23T12:42:35.716Z,11.44
2018-09-23T12:43:35.706Z,11.43
2018-09-23T12:44:35.726Z,11.39
2018-09-23T12:45:35.672Z,11.47
2018-09-23T12:46:35.657Z,11.39
2018-09-23T12:47:35.647Z,11.36
2018-09-23T12:48:35.631Z,11.40
2018-09-23T12:49:35.687Z,11.43
2018-09-23T12:50:35.607Z,11.44
2018-09-23T12:51:35.593Z,11.40
2018-09-23T12:52:35.598Z,11.54
2018-09-23T12:53:35.563Z,11.43
2018-09-23T12:54:35.545Z,11.46
2018-09-23T12:55:35.685Z,11.43
2018-09-23T12:56:35.506Z,11.39
2018-09-23T12:57:35.490Z,11.39
2018-09-23T12:58:35.486Z,11.42
2018-09-23T12:59:35.473Z,11.39
2018-09-23T13:00:35.458Z,11.44
2018-09-23T13:01:35.475Z,11.35
2018-09-23T13:02:35.530Z,11.44
2018-09-23T13:03:35.412Z,11.42
2018-09-23T13:04:35.403Z,11.40
2018-09-23T13:05:35.422Z,11.35
2018-09-23T13:06:35.371Z,11.42
2018-09-23T13:07:35.351Z,11.40
2018-09-23T13:08:35.349Z,11.42
2018-09-23T13:09:35.326Z,11.46
2018-09-23T13:10:35.312Z,11.39
2018-09-23T13:11:35.349Z,11.43
2018-09-23T13:12:35.272Z,11.40
2018-09-23T13:13:35.260Z,11.44
2018-09-23T13:14:35.241Z,11.46
2018-09-23T13:15:35.240Z,11.47
2018-09-23T13:16:35.225Z,11.35
2018-09-23T13:17:35.208Z,11.29
2018-09-23T13:18:35.222Z,11.33
2018-09-23T13:19:35.299Z,11.39
2018-09-23T13:20:37.158Z,11.27
2018-09-23T13:21:35.149Z,11.18
2018-09-23T13:22:35.132Z,11.15
2018-09-23T13:23:35.163Z,11.17
2018-09-23T13:24:35.097Z,11.19
2018-09-23T13:25:35.090Z,11.09
2018-09-23T13:26:35.070Z,11.14
2018-09-23T13:27:35.059Z,11.06
2018-09-23T13:28:35.039Z,11.09